Time;durP1;ratioP1;P1;durP2;ratioP2;P2;SDS_P1;SDS_P2;PMS_P1;PMS_P2;Temp;Humidity;BMP_temperature;BMP_pressure;BME280_temperature;BME280_humidity;BME280_pressure;Samples;Min_cycle;Max_cycle;Signal;HPM_P1;HPM_P2
2023/07/21 00:01:10;;;;;;;2.67;2.47;;;;;;;17.98;48.39;97482.34;4976181;28;20544;-85
2023/07/21 00:03:38;;;;;;;2.60;2.40;;;;;;;18.01;48.49;97475.50;4978163;28;20911;-85
2023/07/21 00:06:06;;;;;;;2.43;2.23;;;;;;;17.99;48.26;97484.00;4980330;28;20485;-85
2023/07/21 00:08:33;;;;;;;2.70;2.50;;;;;;;18.22;48.04;97476.47;4978042;28;20540;-86
2023/07/21 00:11:00;;;;;;;3.00;2.47;;;;;;;18.10;48.15;97469.28;4976457;28;20491;-85
2023/07/21 00:13:27;;;;;;;2.40;2.20;;;;;;;18.03;48.34;97474.16;4974859;28;20501;-84
2023/07/21 00:15:55;;;;;;;2.50;2.27;;;;;;;17.92;48.90;97472.44;4977485;28;20565;-85
2023/07/21 00:18:24;;;;;;;3.60;2.20;;;;;;;17.81;49.34;97475.38;4975376;28;20468;-85
2023/07/21 00:20:50;;;;;;;3.27;2.60;;;;;;;17.83;49.11;97468.56;4981000;28;20509;-87
2023/07/21 00:23:19;;;;;;;4.00;2.47;;;;;;;17.70;49.10;97463.50;4979686;28;20553;-85
2023/07/21 00:25:46;;;;;;;2.37;2.13;;;;;;;17.63;49.57;97465.59;4976807;28;20478;-86
2023/07/21 00:28:13;;;;;;;2.23;2.03;;;;;;;17.58;50.14;97471.03;4976128;28;20458;-85
2023/07/21 00:30:40;;;;;;;3.67;2.53;;;;;;;17.45;50.38;97472.31;4979940;28;20540;-85
2023/07/21 00:33:07;;;;;;;3.10;2.60;;;;;;;17.48;50.47;97457.28;4983725;28;20462;-85
2023/07/21 00:35:35;;;;;;;2.80;2.17;;;;;;;17.39;51.21;97465.97;4979969;28;20536;-86
2023/07/21 00:38:04;;;;;;;2.03;1.90;;;;;;;17.21;51.71;97468.25;4978332;28;20550;-86
2023/07/21 00:40:35;;;;;;;2.47;2.27;;;;;;;17.18;51.66;97469.59;4977471;28;20459;-86
2023/07/21 00:43:02;;;;;;;3.30;2.30;;;;;;;17.08;52.51;97467.59;4978311;28;21012;-85
2023/07/21 00:45:29;;;;;;;2.77;2.07;;;;;;;16.95;52.88;97470.72;4980000;28;20486;-85
2023/07/21 00:47:56;;;;;;;4.13;2.27;;;;;;;16.98;53.08;97474.84;4987585;28;20457;-85
2023/07/21 00:50:25;;;;;;;5.53;2.70;;;;;;;17.05;52.71;97462.63;4987615;28;20486;-85
2023/07/21 00:52:53;;;;;;;2.87;2.30;;;;;;;17.01;52.86;97457.94;4982377;28;20954;-85
2023/07/21 00:55:20;;;;;;;2.40;2.20;;;;;;;16.95;53.12;97459.78;4983561;28;20795;-84
2023/07/21 00:57:47;;;;;;;2.70;2.50;;;;;;;16.93;53.12;97463.84;4983392;28;20823;-85
2023/07/21 01:00:14;;;;;;;2.73;2.30;;;;;;;16.82;53.93;97459.38;4982170;28;20497;-85
2023/07/21 01:02:41;;;;;;;2.80;2.30;;;;;;;16.81;54.00;97461.28;4985167;28;20462;-86
2023/07/21 01:05:09;;;;;;;2.70;2.50;;;;;;;16.92;53.78;97456.72;4981476;28;20502;-86
2023/07/21 01:07:37;;;;;;;3.07;2.40;;;;;;;16.93;53.98;97452.91;4981588;28;20467;-85
2023/07/21 01:10:08;;;;;;;2.80;2.50;;;;;;;17.07;53.57;97449.53;4990841;28;20533;-86
2023/07/21 01:12:35;;;;;;;4.17;2.83;;;;;;;17.17;53.36;97451.53;4986291;28;20461;-85
2023/07/21 01:15:02;;;;;;;2.83;2.53;;;;;;;17.07;53.75;97446.78;4983108;28;20505;-85
2023/07/21 01:17:29;;;;;;;2.60;2.40;;;;;;;17.08;53.84;97450.34;4986626;28;20462;-84
2023/07/21 01:19:58;;;;;;;3.63;2.97;;;;;;;17.22;53.40;97445.31;4983517;28;20461;-85
2023/07/21 01:22:26;;;;;;;3.20;2.90;;;;;;;17.27;53.17;97448.06;4980678;28;20466;-86
2023/07/21 01:25:07;;;;;;;4.90;2.90;;;;;;;17.29;53.13;97446.72;4981458;28;20454;-85
2023/07/21 01:27:36;;;;;;;4.00;2.60;;;;;;;17.24;53.44;97443.09;4981969;28;20566;-84
2023/07/21 01:30:06;;;;;;;3.33;2.90;;;;;;;17.32;53.12;97438.00;4977983;28;20572;-87
2023/07/21 01:32:36;;;;;;;3.40;3.10;;;;;;;17.35;53.04;97439.38;4985919;28;20458;-85
2023/07/21 01:35:03;;;;;;;4.40;2.77;;;;;;;17.24;53.58;97437.63;4974271;28;20489;-85
2023/07/21 01:37:31;;;;;;;2.70;2.50;;;;;;;17.13;53.75;97434.00;4976432;28;20464;-86
2023/07/21 01:39:59;;;;;;;3.40;3.10;;;;;;;17.12;53.64;97435.91;4979114;28;20553;-85
2023/07/21 01:42:30;;;;;;;3.10;2.80;;;;;;;17.02;54.20;97430.31;4975391;28;20570;-85
2023/07/21 01:44:57;;;;;;;2.90;2.70;;;;;;;16.94;54.40;97432.69;4982076;28;20482;-85
2023/07/21 01:47:24;;;;;;;4.20;3.07;;;;;;;16.88;54.48;97428.28;4972910;28;20462;-85
2023/07/21 01:49:51;;;;;;;3.27;2.60;;;;;;;17.02;54.30;97424.03;4973625;28;21089;-86
2023/07/21 01:52:18;;;;;;;3.47;2.70;;;;;;;17.08;53.85;97428.47;4972953;28;20450;-85
2023/07/21 01:54:48;;;;;;;6.20;2.97;;;;;;;17.16;53.33;97422.53;4976309;28;20478;-85
2023/07/21 01:57:18;;;;;;;4.20;2.90;;;;;;;16.99;54.17;97417.19;4975623;28;20486;-85
2023/07/21 01:59:47;;;;;;;2.73;2.53;;;;;;;16.93;54.41;97425.56;4972625;28;20554;-86
2023/07/21 02:02:15;;;;;;;4.30;2.60;;;;;;;17.10;54.06;97412.63;4980280;28;20487;-85
2023/07/21 02:04:49;;;;;;;3.80;2.60;;;;;;;17.10;54.06;97410.72;4974582;28;20467;-86
2023/07/21 02:07:16;;;;;;;3.60;3.10;;;;;;;17.14;54.17;97419.25;4976048;28;20474;-86
2023/07/21 02:09:43;;;;;;;3.33;2.77;;;;;;;17.19;53.97;97413.81;4972732;28;20486;-86
2023/07/21 02:12:11;;;;;;;3.00;2.80;;;;;;;17.39;53.49;97407.69;4974036;28;20521;-85
2023/07/21 02:14:37;;;;;;;4.00;3.00;;;;;;;17.32;53.54;97402.44;4978192;28;20577;-86
2023/07/21 02:17:06;;;;;;;2.70;2.43;;;;;;;17.30;53.83;97407.34;4975851;28;20558;-86
2023/07/21 02:19:33;;;;;;;2.90;2.70;;;;;;;17.20;54.02;97404.53;4982769;28;20462;-86
2023/07/21 02:22:00;;;;;;;3.50;2.83;;;;;;;17.00;54.24;97409.78;4987744;28;20459;-85
2023/07/21 02:24:27;;;;;;;3.47;2.87;;;;;;;16.93;54.40;97406.44;4984740;28;20486;-85
2023/07/21 02:26:54;;;;;;;2.67;2.43;;;;;;;16.98;54.38;97411.97;4982080;28;20465;-85
2023/07/21 02:29:21;;;;;;;4.03;2.80;;;;;;;16.99;54.19;97408.16;4980537;28;20550;-86
2023/07/21 02:31:49;;;;;;;2.30;2.10;;;;;;;16.94;53.96;97399.88;4980364;28;20837;-85
2023/07/21 02:34:17;;;;;;;3.50;2.63;;;;;;;16.89;54.12;97408.06;4980454;28;20501;-84
2023/07/21 02:36:44;;;;;;;2.60;2.40;;;;;;;16.88;54.27;97409.16;4982633;28;20474;-85
2023/07/21 02:39:11;;;;;;;3.00;2.30;;;;;;;16.75;54.94;97410.38;4974458;28;20624;-85
2023/07/21 02:41:38;;;;;;;3.00;2.57;;;;;;;16.85;54.80;97417.88;4971537;28;20612;-85
2023/07/21 02:44:04;;;;;;;2.63;2.40;;;;;;;16.69;55.36;97404.03;4977524;28;20462;-86
2023/07/21 02:46:31;;;;;;;3.27;2.93;;;;;;;16.79;55.06;97414.25;4975183;28;20513;-86
2023/07/21 02:48:59;;;;;;;3.53;2.40;;;;;;;16.74;55.12;97412.28;4977231;28;21461;-86
2023/07/21 02:51:27;;;;;;;3.13;2.27;;;;;;;16.99;54.20;97410.88;4972269;28;20561;-86
2023/07/21 02:53:54;;;;;;;3.07;2.30;;;;;;;16.74;54.73;97404.06;4971617;28;20478;-86
2023/07/21 02:56:21;;;;;;;3.00;2.40;;;;;;;16.53;55.55;97404.09;4981176;28;20532;-85
2023/07/21 02:58:48;;;;;;;2.73;2.40;;;;;;;16.66;55.13;97392.78;4979813;28;20536;-86
2023/07/21 03:01:15;;;;;;;4.50;2.40;;;;;;;16.66;55.42;97393.59;4981042;28;20545;-86
2023/07/21 03:03:43;;;;;;;3.60;2.73;;;;;;;16.76;54.98;97392.88;4985075;28;20450;-84
2023/07/21 03:06:10;;;;;;;2.73;2.53;;;;;;;16.63;55.07;97396.81;4983555;28;20504;-85
2023/07/21 03:08:38;;;;;;;3.27;2.43;;;;;;;16.48;55.41;97393.09;4982597;28;20548;-85
2023/07/21 03:11:06;;;;;;;3.30;2.80;;;;;;;16.68;55.04;97396.91;4982458;28;20556;-85
2023/07/21 03:13:33;;;;;;;3.07;2.60;;;;;;;16.88;54.45;97398.22;4979247;28;20492;-85
2023/07/21 03:16:00;;;;;;;2.97;2.50;;;;;;;16.79;54.82;97400.59;4982887;28;21748;-86
2023/07/21 03:18:27;;;;;;;2.87;2.60;;;;;;;16.71;54.91;97399.13;4981784;28;20463;-86
2023/07/21 03:20:58;;;;;;;3.00;2.57;;;;;;;16.83;54.73;97403.63;4982145;28;20466;-86
2023/07/21 03:23:25;;;;;;;4.20;2.60;;;;;;;16.88;54.65;97395.47;4982888;28;20988;-86
2023/07/21 03:25:53;;;;;;;3.73;2.37;;;;;;;16.99;54.28;97398.03;4976833;28;20476;-86
2023/07/21 03:28:21;;;;;;;3.17;2.53;;;;;;;16.81;54.63;97398.41;4977687;28;20458;-86
2023/07/21 03:30:57;;;;;;;2.27;2.07;;;;;;;16.70;54.76;97405.66;4979167;28;20680;-85
2023/07/21 03:33:24;;;;;;;3.53;2.53;;;;;;;16.55;55.39;97404.66;4976376;28;21028;-85
2023/07/21 03:35:58;;;;;;;2.60;2.40;;;;;;;16.47;55.48;97400.47;4975459;28;20486;-85
2023/07/21 03:38:24;;;;;;;2.50;2.30;;;;;;;16.58;55.57;97406.84;4979002;28;20485;-86
2023/07/21 03:41:01;;;;;;;3.10;2.40;;;;;;;16.53;55.86;97394.00;4979177;28;20472;-86
2023/07/21 03:43:27;;;;;;;3.93;2.60;;;;;;;16.45;56.19;97394.44;4975682;28;21137;-86
2023/07/21 03:45:57;;;;;;;2.83;2.30;;;;;;;16.64;55.73;97397.66;4985809;28;20901;-85
2023/07/21 03:48:24;;;;;;;3.77;2.73;;;;;;;16.63;55.97;97404.19;4985324;28;20469;-86
2023/07/21 03:50:50;;;;;;;2.77;2.57;;;;;;;16.57;56.31;97388.84;4981978;28;20515;-86
2023/07/21 03:53:17;;;;;;;4.00;2.80;;;;;;;16.39;57.03;97390.81;4993686;28;20481;-85
2023/07/21 03:55:44;;;;;;;2.97;2.67;;;;;;;16.39;57.28;97387.25;4985805;28;21004;-86
2023/07/21 03:58:13;;;;;;;3.27;2.47;;;;;;;16.33;57.51;97383.63;4983575;28;20449;-86
2023/07/21 04:00:42;;;;;;;3.27;2.97;;;;;;;16.39;57.41;97387.25;4983806;28;21002;-86
2023/07/21 04:03:09;;;;;;;2.80;2.40;;;;;;;16.09;58.46;97391.25;4984804;28;21005;-85
2023/07/21 04:05:36;;;;;;;3.77;2.50;;;;;;;16.10;58.38;97384.72;4982795;28;20466;-85
2023/07/21 04:08:03;;;;;;;3.10;2.60;;;;;;;16.05;58.84;97386.56;4987926;28;20474;-85
2023/07/21 04:10:30;;;;;;;3.23;2.90;;;;;;;16.16;58.80;97382.91;4976577;28;20479;-85
2023/07/21 04:12:57;;;;;;;4.73;2.53;;;;;;;16.21;58.90;97380.22;4980845;28;20486;-84
2023/07/21 04:15:26;;;;;;;3.37;2.37;;;;;;;16.26;59.01;97395.81;4977077;28;20478;-83
2023/07/21 04:17:53;;;;;;;3.47;2.20;;;;;;;16.26;59.18;97379.44;4974328;28;20464;-86
2023/07/21 04:20:19;;;;;;;3.57;2.57;;;;;;;16.33;58.86;97388.28;4978348;28;20459;-82
2023/07/21 04:22:46;;;;;;;2.50;2.30;;;;;;;16.08;59.56;97400.53;4977790;28;21041;-82
2023/07/21 04:25:15;;;;;;;2.77;2.57;;;;;;;16.26;59.15;97393.09;4985539;28;20470;-82
2023/07/21 04:27:42;;;;;;;3.13;2.57;;;;;;;16.15;59.61;97385.88;4974859;28;20458;-92
2023/07/21 04:30:10;;;;;;;2.93;2.60;;;;;;;16.13;59.76;97389.69;4976301;28;20502;-91
2023/07/21 04:32:39;;;;;;;4.10;2.47;;;;;;;16.29;59.57;97385.22;4979549;28;21024;-92
2023/07/21 04:35:08;;;;;;;2.73;2.43;;;;;;;16.36;59.27;97394.06;4979930;28;20493;-91
2023/07/21 04:37:35;;;;;;;2.90;2.60;;;;;;;16.48;58.95;97395.84;4976289;28;21008;-91
2023/07/21 04:40:04;;;;;;;3.20;2.90;;;;;;;16.38;59.22;97399.25;4984321;28;20482;-92
2023/07/21 04:42:30;;;;;;;2.97;2.70;;;;;;;16.47;59.17;97405.94;4999518;28;20967;-92
2023/07/21 04:44:57;;;;;;;3.70;3.03;;;;;;;16.75;58.24;97405.72;4988090;28;20567;-90
2023/07/21 04:47:24;;;;;;;3.80;3.07;;;;;;;17.25;56.88;97404.56;4975889;28;20959;-84
2023/07/21 04:49:53;;;;;;;4.17;2.80;;;;;;;17.18;56.56;97390.28;4970794;28;21036;-83
2023/07/21 04:52:21;;;;;;;3.97;3.00;;;;;;;17.23;56.19;97398.50;4938644;28;22671;-84
2023/07/21 04:54:48;;;;;;;3.23;2.93;;;;;;;17.56;55.71;97394.69;4967778;28;20496;-83
2023/07/21 04:57:15;;;;;;;3.37;3.07;;;;;;;17.27;56.36;97398.81;4974055;28;20456;-82
2023/07/21 04:59:43;;;;;;;3.50;2.77;;;;;;;17.54;56.13;97393.31;4976270;28;20541;-84
2023/07/21 05:02:10;;;;;;;2.97;2.77;;;;;;;17.35;56.43;97390.16;4973727;28;20498;-84
2023/07/21 05:04:37;;;;;;;3.20;2.90;;;;;;;17.52;56.24;97398.22;4971791;28;21005;-83
2023/07/21 05:07:08;;;;;;;4.10;2.60;;;;;;;17.16;57.50;97399.84;4981177;28;22048;-83
2023/07/21 05:09:36;;;;;;;3.77;2.67;;;;;;;17.35;57.37;97401.91;4978546;28;20455;-83
2023/07/21 05:12:03;;;;;;;2.80;2.57;;;;;;;17.49;57.68;97391.38;4981866;28;20483;-84
2023/07/21 05:14:30;;;;;;;3.80;2.90;;;;;;;17.65;57.58;97397.78;4984078;28;20485;-84
2023/07/21 05:16:56;;;;;;;4.30;3.07;;;;;;;17.58;57.88;97399.88;4977900;28;20446;-83
2023/07/21 05:19:25;;;;;;;4.40;3.20;;;;;;;16.96;59.30;97403.19;4980807;28;20984;-84
2023/07/21 05:21:51;;;;;;;3.77;3.07;;;;;;;16.93;59.34;97392.78;4976706;28;20465;-85
2023/07/21 05:24:19;;;;;;;4.20;2.90;;;;;;;17.21;58.76;97400.72;4985576;28;20450;-79
2023/07/21 05:26:46;;;;;;;3.00;2.50;;;;;;;17.62;57.89;97396.38;4994184;28;20481;-84
2023/07/21 05:29:13;;;;;;;2.90;2.70;;;;;;;17.39;57.72;97404.94;4988021;28;20486;-84
2023/07/21 05:31:40;;;;;;;2.90;2.60;;;;;;;17.43;57.85;97408.81;4984732;28;20497;-84
2023/07/21 05:34:07;;;;;;;5.83;2.90;;;;;;;17.17;59.25;97396.84;4983145;28;20488;-84
2023/07/21 05:36:34;;;;;;;2.93;2.73;;;;;;;16.91;60.01;97400.41;4983807;28;20454;-84
2023/07/21 05:39:02;;;;;;;4.10;3.40;;;;;;;16.87;60.11;97399.28;4979233;28;20948;-83
2023/07/21 05:41:30;;;;;;;4.50;3.40;;;;;;;16.97;59.49;97382.97;4981492;28;20473;-84
2023/07/21 05:43:58;;;;;;;4.07;3.43;;;;;;;17.07;59.71;97392.09;4984612;28;20541;-84
2023/07/21 05:46:24;;;;;;;4.80;3.47;;;;;;;17.29;59.17;97385.72;4979825;28;20459;-84
2023/07/21 05:48:51;;;;;;;3.50;3.20;;;;;;;17.55;58.31;97384.00;4977765;28;20484;-84
2023/07/21 05:51:18;;;;;;;4.83;3.00;;;;;;;17.82;57.33;97392.16;4976256;28;20493;-83
2023/07/21 05:53:45;;;;;;;3.90;3.20;;;;;;;18.16;56.50;97392.63;4966335;28;20463;-84
2023/07/21 05:56:12;;;;;;;2.73;2.40;;;;;;;17.58;57.72;97388.94;4972179;28;20567;-83
2023/07/21 05:58:41;;;;;;;4.33;3.20;;;;;;;17.55;57.95;97386.72;4978760;28;20451;-84
2023/07/21 06:01:10;;;;;;;6.03;3.30;;;;;;;17.72;58.03;97390.19;4975552;28;20449;-84
2023/07/21 06:03:38;;;;;;;4.67;3.43;;;;;;;17.70;57.53;97381.41;4977908;28;20458;-84
2023/07/21 06:06:05;;;;;;;4.57;3.30;;;;;;;17.94;57.36;97387.28;4975217;28;20510;-83
2023/07/21 06:08:34;;;;;;;3.43;2.80;;;;;;;18.62;55.50;97382.69;4974876;28;20465;-83
2023/07/21 06:11:02;;;;;;;2.97;2.77;;;;;;;19.09;54.09;97386.06;4977204;28;20489;-83
2023/07/21 06:13:32;;;;;;;2.83;2.63;;;;;;;18.37;55.97;97389.69;4970448;28;20573;-84
2023/07/21 06:16:00;;;;;;;3.83;2.90;;;;;;;17.87;57.53;97387.53;4981873;28;20484;-83
2023/07/21 06:18:26;;;;;;;4.40;3.67;;;;;;;18.03;57.68;97381.06;4979532;28;20451;-83
2023/07/21 06:20:54;;;;;;;4.20;2.97;;;;;;;18.71;56.37;97392.84;4988045;28;20514;-83
2023/07/21 06:23:20;;;;;;;3.50;2.90;;;;;;;18.82;55.36;97390.16;4987505;28;20500;-82
2023/07/21 06:25:47;;;;;;;3.30;3.00;;;;;;;19.26;54.48;97388.53;4980540;28;20557;-84
2023/07/21 06:28:14;;;;;;;3.73;3.30;;;;;;;20.02;51.93;97395.91;4982512;28;20462;-84
2023/07/21 06:30:41;;;;;;;3.60;3.20;;;;;;;20.07;51.63;97393.16;4977590;28;20553;-84
2023/07/21 06:33:09;;;;;;;3.27;2.97;;;;;;;20.52;50.29;97397.69;4979427;28;20584;-84
2023/07/21 06:35:36;;;;;;;6.00;3.90;;;;;;;20.58;49.31;97407.56;4979164;28;20494;-83
2023/07/21 06:38:03;;;;;;;4.03;3.63;;;;;;;20.76;49.66;97401.44;4983113;28;21007;-84
2023/07/21 06:40:31;;;;;;;3.70;3.37;;;;;;;20.69;48.84;97402.84;4981011;28;20450;-84
2023/07/21 06:42:58;;;;;;;3.53;3.23;;;;;;;20.94;48.05;97404.63;4975280;28;20459;-84
2023/07/21 06:45:25;;;;;;;6.03;3.40;;;;;;;21.12;47.49;97401.19;4973486;28;20516;-84
2023/07/21 06:47:52;;;;;;;4.90;3.20;;;;;;;20.71;47.57;97401.47;4972724;28;20473;-84
2023/07/21 06:50:20;;;;;;;2.83;2.57;;;;;;;20.68;47.95;97402.03;4974037;28;20551;-85
2023/07/21 06:52:47;;;;;;;3.30;3.00;;;;;;;20.90;47.78;97398.03;4975157;28;20477;-84
2023/07/21 06:55:14;;;;;;;3.50;3.20;;;;;;;21.06;46.94;97394.09;4983365;28;20484;-84
2023/07/21 06:57:41;;;;;;;6.03;3.50;;;;;;;21.24;45.82;97390.69;4984131;28;20458;-82
2023/07/21 07:00:12;;;;;;;4.93;3.27;;;;;;;21.45;45.18;97392.16;4993026;28;20538;-81
2023/07/21 07:02:39;;;;;;;4.27;2.10;;;;;;;21.17;44.15;97395.66;4985390;28;20548;-82
2023/07/21 07:05:07;;;;;;;2.80;2.50;;;;;;;21.70;42.17;97395.81;4987191;28;20478;-81
2023/07/21 07:07:36;;;;;;;2.80;2.50;;;;;;;21.85;42.18;97403.09;4983122;28;20462;-81
2023/07/21 07:10:03;;;;;;;4.00;2.50;;;;;;;21.36;42.13;97404.91;4979475;28;20455;-83
2023/07/21 07:12:30;;;;;;;3.10;2.50;;;;;;;20.67;43.46;97416.88;4978982;28;21329;-83
2023/07/21 07:14:58;;;;;;;3.40;3.17;;;;;;;20.92;43.38;97415.09;4973239;28;20467;-84
2023/07/21 07:17:25;;;;;;;2.40;2.20;;;;;;;20.72;43.31;97422.34;4978101;28;20466;-83
2023/07/21 07:19:52;;;;;;;4.77;2.40;;;;;;;21.18;42.37;97413.81;4982374;28;20567;-82
2023/07/21 07:22:19;;;;;;;2.10;1.90;;;;;;;21.50;41.97;97413.31;4979683;28;20993;-83
2023/07/21 07:24:47;;;;;;;2.83;2.37;;;;;;;21.69;41.33;97413.47;4980896;28;20517;-83
2023/07/21 07:27:14;;;;;;;2.60;2.10;;;;;;;21.55;41.63;97409.72;4976834;28;20558;-82
2023/07/21 07:29:41;;;;;;;3.00;2.20;;;;;;;22.07;40.68;97415.31;4985676;28;20862;-83
2023/07/21 07:32:08;;;;;;;1.93;1.83;;;;;;;22.20;39.87;97415.72;4985981;28;20596;-83
2023/07/21 07:34:36;;;;;;;3.23;2.40;;;;;;;22.86;39.16;97420.47;4984706;28;20474;-84
2023/07/21 07:37:03;;;;;;;3.17;2.10;;;;;;;22.73;39.79;97422.00;4985614;28;20984;-84
2023/07/21 07:39:31;;;;;;;3.43;2.40;;;;;;;22.65;39.61;97420.72;4980531;28;20490;-84
2023/07/21 07:41:59;;;;;;;3.90;2.40;;;;;;;22.65;39.91;97420.72;4977511;28;20537;-84
2023/07/21 07:44:25;;;;;;;2.80;2.53;;;;;;;22.19;40.64;97411.31;4979258;28;20524;-84
2023/07/21 07:46:55;;;;;;;2.70;2.50;;;;;;;22.05;41.10;97414.78;4981657;28;20453;-84
2023/07/21 07:49:22;;;;;;;2.40;2.20;;;;;;;21.95;40.65;97417.63;4982966;28;20465;-83
2023/07/21 07:51:49;;;;;;;3.97;2.33;;;;;;;21.72;41.33;97418.41;4987310;28;20480;-83
2023/07/21 07:54:16;;;;;;;3.30;2.10;;;;;;;21.82;41.29;97418.28;4977444;28;20478;-84
2023/07/21 07:56:43;;;;;;;2.03;1.83;;;;;;;22.09;41.34;97423.31;4982406;28;21017;-84
2023/07/21 07:59:11;;;;;;;2.30;2.10;;;;;;;22.22;40.27;97424.53;4981717;28;20810;-84
2023/07/21 08:01:38;;;;;;;1.70;1.60;;;;;;;22.66;38.98;97422.38;4978885;28;20469;-84
2023/07/21 08:04:05;;;;;;;2.93;2.10;;;;;;;23.01;38.37;97423.88;4983575;28;20530;-84
2023/07/21 08:06:32;;;;;;;2.63;2.00;;;;;;;23.37;38.11;97424.16;4972762;28;20545;-84
2023/07/21 08:08:58;;;;;;;3.03;2.07;;;;;;;23.69;36.60;97433.63;4978425;28;20869;-84
2023/07/21 08:11:25;;;;;;;2.23;2.03;;;;;;;24.18;35.34;97429.44;4976619;28;20835;-84
2023/07/21 08:13:52;;;;;;;2.33;1.87;;;;;;;24.39;35.21;97427.94;4977231;28;20471;-84
2023/07/21 08:16:22;;;;;;;2.83;2.30;;;;;;;24.46;35.04;97433.91;4978275;28;20464;-84
2023/07/21 08:18:49;;;;;;;2.17;1.97;;;;;;;24.79;34.35;97429.91;4978929;28;20992;-84
2023/07/21 08:21:17;;;;;;;1.83;1.73;;;;;;;24.54;35.04;97426.84;4983735;28;20464;-83
2023/07/21 08:23:44;;;;;;;2.80;2.27;;;;;;;24.27;35.51;97427.66;4984683;28;20665;-83
2023/07/21 08:26:11;;;;;;;2.33;2.07;;;;;;;24.67;34.96;97426.84;4979708;28;20458;-84
2023/07/21 08:28:38;;;;;;;3.07;2.63;;;;;;;24.92;34.49;97430.19;4977224;28;20943;-83
2023/07/21 08:31:05;;;;;;;2.80;1.97;;;;;;;24.84;32.40;97426.19;4986142;28;20470;-84
2023/07/21 08:33:41;;;;;;;2.20;2.00;;;;;;;26.12;30.97;97422.09;4986421;28;20481;-84
2023/07/21 08:36:08;;;;;;;2.90;2.37;;;;;;;26.47;30.72;97419.50;4983075;28;20516;-84
2023/07/21 08:38:35;;;;;;;3.13;2.00;;;;;;;26.00;31.33;97422.66;4980550;28;20534;-84
2023/07/21 08:41:04;;;;;;;1.70;1.50;;;;;;;25.60;30.61;97432.00;4984299;28;20478;-84
2023/07/21 08:43:32;;;;;;;2.10;1.43;;;;;;;27.49;28.33;97420.06;4982958;28;20466;-84
2023/07/21 08:46:01;;;;;;;2.33;1.60;;;;;;;27.37;28.27;97429.88;4980602;28;20462;-83
2023/07/21 08:48:28;;;;;;;3.03;1.63;;;;;;;28.18;27.54;97431.13;4973871;28;20955;-84
2023/07/21 08:50:57;;;;;;;2.03;1.60;;;;;;;28.21;27.82;97430.50;4985709;28;20673;-84
2023/07/21 08:53:25;;;;;;;2.17;1.57;;;;;;;27.19;28.10;97419.91;4976841;28;20533;-84
2023/07/21 08:55:53;;;;;;;2.30;1.70;;;;;;;28.27;26.01;97429.16;4987923;28;20491;-84
2023/07/21 08:58:21;;;;;;;2.83;1.80;;;;;;;29.03;25.22;97430.00;4991843;28;20459;-84
2023/07/21 09:00:49;;;;;;;1.90;1.80;;;;;;;28.58;25.87;97429.72;4979794;28;20458;-84
2023/07/21 09:03:27;;;;;;;2.40;1.80;;;;;;;27.17;27.85;97436.06;4984069;28;20505;-84
2023/07/21 09:05:57;;;;;;;2.10;2.00;;;;;;;25.99;29.15;97434.88;4980438;28;20472;-84
2023/07/21 09:08:27;;;;;;;2.50;1.90;;;;;;;26.50;28.83;97438.28;4982920;28;21011;-85
2023/07/21 09:10:58;;;;;;;3.80;2.93;;;;;;;26.30;29.23;97445.22;4983654;28;20487;-85
2023/07/21 09:13:25;;;;;;;2.60;1.77;;;;;;;25.34;30.10;97435.34;4982735;28;20521;-85
2023/07/21 09:15:53;;;;;;;2.00;1.80;;;;;;;26.00;29.98;97441.25;4975163;28;20457;-83
2023/07/21 09:18:31;;;;;;;1.87;1.77;;;;;;;27.19;28.96;97433.78;4979015;28;20992;-84
2023/07/21 09:20:59;;;;;;;2.23;1.90;;;;;;;27.53;28.17;97430.22;4981391;28;20934;-84
2023/07/21 09:23:29;;;;;;;2.47;2.00;;;;;;;27.66;27.94;97431.19;4983873;28;21909;-84
2023/07/21 09:25:57;;;;;;;2.60;1.93;;;;;;;28.03;28.07;97430.50;4981065;28;20926;-84
2023/07/21 09:28:39;;;;;;;2.70;2.20;;;;;;;28.95;26.09;97438.41;4979360;28;20559;-84
2023/07/21 09:31:06;;;;;;;2.30;2.10;;;;;;;27.75;28.04;97440.38;4983557;28;20501;-84
2023/07/21 09:33:37;;;;;;;1.70;1.60;;;;;;;28.02;28.02;97445.56;4984251;28;20629;-83
2023/07/21 09:36:07;;;;;;;2.30;1.90;;;;;;;28.31;26.57;97446.84;4979234;28;20453;-84
2023/07/21 09:38:37;;;;;;;2.30;1.67;;;;;;;27.85;27.91;97442.81;4978386;28;20474;-84
2023/07/21 09:41:05;;;;;;;2.37;1.80;;;;;;;27.68;28.33;97440.03;4978014;28;20466;-84
2023/07/21 09:43:32;;;;;;;1.90;1.80;;;;;;;26.80;29.33;97436.59;4981957;28;20558;-84
2023/07/21 09:46:00;;;;;;;2.30;2.10;;;;;;;26.38;30.68;97444.44;4978900;28;20549;-84
2023/07/21 09:48:27;;;;;;;2.77;1.90;;;;;;;26.47;30.36;97439.75;4979256;28;20512;-82
2023/07/21 09:50:58;;;;;;;2.13;1.93;;;;;;;26.36;29.83;97430.88;4983149;28;20454;-84
2023/07/21 09:53:30;;;;;;;1.80;1.70;;;;;;;26.85;29.13;97428.13;4978345;28;20481;-83
2023/07/21 09:55:57;;;;;;;2.13;1.93;;;;;;;26.84;29.41;97426.50;4979122;28;20455;-83
2023/07/21 09:58:26;;;;;;;2.60;1.90;;;;;;;26.36;29.69;97428.09;4978071;28;20453;-84
2023/07/21 10:00:54;;;;;;;3.67;2.27;;;;;;;24.86;31.63;97428.66;4972940;28;21546;-83
2023/07/21 10:03:21;;;;;;;2.00;1.73;;;;;;;26.93;30.18;97417.06;4982128;28;20474;-84
2023/07/21 10:05:48;;;;;;;2.40;2.17;;;;;;;27.47;28.46;97411.25;4985402;28;20465;-84
2023/07/21 10:08:16;;;;;;;1.80;1.70;;;;;;;28.55;26.25;97402.53;4981073;28;23917;-85
2023/07/21 10:10:44;;;;;;;1.97;1.87;;;;;;;28.43;25.46;97406.03;4981749;28;20552;-85
2023/07/21 10:13:12;;;;;;;3.17;2.00;;;;;;;30.89;23.92;97404.88;4981813;28;20986;-84
2023/07/21 10:15:40;;;;;;;1.80;1.70;;;;;;;31.20;23.42;97400.69;4976842;28;21047;-85
2023/07/21 10:18:10;;;;;;;1.80;1.70;;;;;;;30.40;24.04;97395.66;4974874;28;20457;-85
2023/07/21 10:20:38;;;;;;;1.80;1.70;;;;;;;30.58;23.20;97388.72;4972922;28;20447;-86
2023/07/21 10:23:06;;;;;;;2.10;1.87;;;;;;;30.75;23.00;97390.47;4976319;28;20550;-85
2023/07/21 10:25:55;;;;;;;1.83;1.73;;;;;;;31.91;21.77;97395.22;4975507;28;20561;-85
2023/07/21 10:28:25;;;;;;;2.63;2.30;;;;;;;31.94;21.24;97396.50;4974120;28;20839;-85
2023/07/21 10:30:53;;;;;;;2.00;1.87;;;;;;;31.57;22.09;97395.81;4971129;28;20458;-85
2023/07/21 10:33:21;;;;;;;2.27;2.07;;;;;;;32.72;20.90;97385.41;4973362;28;20621;-85
2023/07/21 10:35:48;;;;;;;2.00;1.57;;;;;;;33.96;19.00;97387.41;4972641;28;20469;-86
2023/07/21 10:38:19;;;;;;;2.13;1.50;;;;;;;32.21;21.00;97403.25;4975328;28;20496;-86
2023/07/21 10:40:47;;;;;;;2.20;2.10;;;;;;;32.65;21.16;97395.63;4975347;28;20547;-85
2023/07/21 10:43:15;;;;;;;1.90;1.80;;;;;;;32.61;21.26;97400.31;4973164;28;20601;-85
2023/07/21 10:45:42;;;;;;;1.80;1.70;;;;;;;31.51;21.28;97400.06;4976120;28;20537;-85
2023/07/21 10:48:11;;;;;;;2.00;1.90;;;;;;;31.31;22.38;97394.25;4974052;28;20865;-85
2023/07/21 10:50:41;;;;;;;5.07;1.83;;;;;;;30.76;21.98;97394.09;4977443;28;20473;-85
2023/07/21 10:53:07;;;;;;;1.90;1.80;;;;;;;28.68;24.50;97395.91;4973786;28;20494;-85
2023/07/21 10:55:37;;;;;;;2.30;2.10;;;;;;;26.80;27.14;97400.50;4975558;28;20485;-84
2023/07/21 10:58:04;;;;;;;2.37;1.90;;;;;;;27.00;26.69;97408.25;4976967;28;20526;-84
2023/07/21 11:00:44;;;;;;;2.00;1.90;;;;;;;26.78;27.59;97411.94;4975414;28;20946;-84
2023/07/21 11:03:11;;;;;;;3.17;2.20;;;;;;;26.43;27.19;97409.03;4973283;28;21051;-84
2023/07/21 11:05:37;;;;;;;2.60;1.90;;;;;;;26.39;28.68;97412.78;4974894;28;20537;-84
2023/07/21 11:08:05;;;;;;;1.70;1.60;;;;;;;26.15;29.08;97415.06;4980565;28;20906;-83
2023/07/21 11:10:33;;;;;;;2.33;2.13;;;;;;;27.46;26.71;97404.03;4982634;28;20462;-84
2023/07/21 11:13:00;;;;;;;2.97;1.60;;;;;;;27.80;25.58;97415.16;4980230;28;21410;-84
2023/07/21 11:15:27;;;;;;;2.10;2.00;;;;;;;29.06;25.44;97411.78;4981672;28;20473;-84
2023/07/21 11:18:00;;;;;;;2.10;1.80;;;;;;;28.00;25.47;97410.88;4980430;28;20540;-85
2023/07/21 11:20:27;;;;;;;2.10;2.00;;;;;;;29.00;24.85;97413.13;4984343;28;20840;-84
2023/07/21 11:22:54;;;;;;;2.27;2.07;;;;;;;27.69;26.82;97416.66;4982205;28;20495;-84
2023/07/21 11:25:21;;;;;;;1.80;1.70;;;;;;;27.18;27.53;97425.78;4980769;28;21001;-84
2023/07/21 11:27:48;;;;;;;2.53;1.70;;;;;;;27.22;27.96;97416.47;4983418;28;20511;-84
2023/07/21 11:30:17;;;;;;;1.60;1.40;;;;;;;28.49;25.94;97403.06;4986027;28;20472;-85
2023/07/21 11:32:43;;;;;;;1.87;1.50;;;;;;;28.33;26.66;97411.13;4992451;28;20545;-84
2023/07/21 11:35:12;;;;;;;4.47;1.67;;;;;;;27.42;27.43;97403.88;4998642;28;20588;-85
2023/07/21 11:37:40;;;;;;;2.23;1.90;;;;;;;27.33;27.49;97405.81;4996850;28;20485;-84